Accueil
METAR-TAF:

METAR-TAF

Aéroports :

Base aérienne de Schaffen

Diest, Belgique

latitude: 51-00N, longitude: 005-04E, altitude: 30 m

Observation

Le bulletin a été fait il y a 13 minutes, à 10:55 UTC
Vent 3 kt de nord-ouest
Température 22°C
Humidité 46%
Pression 1033 hPa
Visibilité 10 km ou plus
Quelques nuages à une hauteur de 4000 ft

METAR: EBDT 271055Z 32003KT 9999 FEW040 22/10 Q1033 BLU BLU

Heure: 13:08 (11:08 UTC)

Prévision

Le bulletin a été fait il y a 2 heures et 27 minutes, à 08:41 UTC
Prévision valable du 27 à 10 UTC au 27 à 19 UTC
Vent 6 kt de nord/nord-ouest
Visibilité 10 km ou plus
Quelques nuages à une hauteur de 5200 ft

TAF: EBDT 270841Z 2710/2719 33006KT 9999 FEW052

Observations et prévisions météorologiques de plus de 4000 aéroports (messages METAR et TAF).

Les stations disponibles sont représentées par des disques jaunes et rouges sur la carte.

Passer la souris dessus pour voir le nom de la station.

Cliquer dessus pour voir les observations et prévisions météorologiques.

Pour changer de carte: cliquez sur les boutons verts avec une croix noire pour zoomer, sur le bouton vert avec un tiret pour effectuer un zoom arrière, ou sur les flèches vertes pour les cartes adjacentes.


METAR-TAF: